Time;durP1;ratioP1;P1;durP2;ratioP2;P2;SDS_P1;SDS_P2;PMS_P1;PMS_P2;Temp;Humidity;BMP_temperature;BMP_pressure;BME280_temperature;BME280_humidity;BME280_pressure;Samples;Min_cycle;Max_cycle;Signal;HPM_P1;HPM_P2
2022/10/30 00:00:04;;;;;;;383.83;211.40;;;;;;;11.18;66.95;100345.75;300322;32;5612;-75
2022/10/30 00:00:15;;;;;;;381.90;210.55;;;;;;;11.18;66.87;100340.50;300252;32;6200;-75
2022/10/30 00:00:25;;;;;;;386.60;218.07;;;;;;;11.15;65.90;100345.84;302147;32;956;-75
2022/10/30 00:00:36;;;;;;;387.50;218.80;;;;;;;11.15;65.89;100343.22;299702;32;5781;-75
2022/10/30 00:00:46;;;;;;;384.63;206.13;;;;;;;11.12;65.27;100340.72;295958;33;6022;-75
2022/10/30 00:00:57;;;;;;;384.95;197.57;;;;;;;11.12;65.10;100340.72;294068;33;1514;-75
2022/10/30 00:01:07;;;;;;;384.17;196.93;;;;;;;11.13;64.91;100343.28;291079;33;5916;-77
2022/10/30 00:01:18;;;;;;;386.47;203.17;;;;;;;11.14;64.43;100344.13;289972;33;6763;-77
2022/10/30 00:01:28;;;;;;;384.42;206.52;;;;;;;11.13;65.49;100337.19;291067;33;5028;-77
2022/10/30 00:01:38;;;;;;;386.73;209.67;;;;;;;11.13;65.23;100340.66;294916;33;1379;-75
2022/10/30 00:01:49;;;;;;;386.08;210.48;;;;;;;11.14;64.95;100338.91;292280;33;4873;-75
2022/10/30 00:01:59;;;;;;;386.23;213.50;;;;;;;11.14;64.46;100344.13;291876;33;7411;-75
2022/10/30 00:02:10;;;;;;;385.75;217.10;;;;;;;11.15;64.20;100345.84;294701;33;1662;-77
2022/10/30 00:02:20;;;;;;;386.67;221.10;;;;;;;11.15;64.05;100338.84;290281;33;8116;-76
2022/10/30 00:02:30;;;;;;;385.03;215.90;;;;;;;11.17;63.62;100339.66;287589;33;8450;-76
2022/10/30 00:02:41;;;;;;;387.42;215.85;;;;;;;11.16;64.51;100344.94;292095;33;864;-76
2022/10/30 00:02:51;;;;;;;388.13;212.20;;;;;;;11.16;64.87;100344.94;287226;34;8425;-76
2022/10/30 00:03:02;;;;;;;386.63;211.52;;;;;;;11.15;65.03;100338.00;283969;34;8336;-77
2022/10/30 00:03:13;;;;;;;384.80;212.47;;;;;;;11.15;64.98;100343.22;282648;35;914;-77
2022/10/30 00:04:52;;;;;;;371.35;194.19;;;;;;;11.11;65.12;100336.38;2489834;27;20489;-76
2022/10/30 00:05:02;;;;;;;382.27;206.37;;;;;;;11.11;64.84;100334.59;351155;28;3222;-77
2022/10/30 00:05:13;;;;;;;388.83;217.73;;;;;;;11.15;64.75;100338.00;346927;28;1936;-76
2022/10/30 00:05:24;;;;;;;396.17;230.10;;;;;;;11.16;64.57;100331.84;344167;28;3183;-75
2022/10/30 00:05:34;;;;;;;400.63;235.23;;;;;;;11.17;64.33;100338.81;346543;28;821;-76
2022/10/30 00:05:46;;;;;;;394.23;224.98;;;;;;;11.19;64.66;100339.63;347774;28;1238;-76
2022/10/30 00:05:56;;;;;;;392.02;217.43;;;;;;;11.16;64.92;100337.94;345832;28;1298;-76
2022/10/30 00:06:07;;;;;;;393.30;218.07;;;;;;;11.16;64.98;100337.94;345871;28;1369;-76
2022/10/30 00:06:17;;;;;;;393.08;216.95;;;;;;;11.16;65.34;100337.09;348469;28;1327;-76
2022/10/30 00:06:28;;;;;;;390.97;217.03;;;;;;;11.17;65.88;100339.66;347290;28;1202;-76
2022/10/30 00:06:38;;;;;;;385.98;212.75;;;;;;;11.17;65.68;100338.81;345971;28;1103;-76
2022/10/30 00:06:49;;;;;;;382.53;210.70;;;;;;;11.17;65.53;100333.56;346555;28;1695;-76
2022/10/30 00:06:59;;;;;;;383.05;211.00;;;;;;;11.17;65.19;100336.19;347113;28;1535;-76
2022/10/30 00:07:09;;;;;;;384.93;211.10;;;;;;;11.18;65.33;100338.75;347379;28;1200;-76
2022/10/30 00:07:20;;;;;;;386.02;212.68;;;;;;;11.17;65.64;100341.41;347272;28;1330;-76
2022/10/30 00:07:30;;;;;;;385.87;211.50;;;;;;;11.18;65.28;100343.13;347160;28;1466;-76
2022/10/30 00:07:40;;;;;;;384.53;212.27;;;;;;;11.17;64.25;100333.56;348691;28;1311;-76
2022/10/30 00:07:51;;;;;;;383.97;214.80;;;;;;;11.17;64.71;100337.03;349304;28;850;-75
2022/10/30 00:08:02;;;;;;;384.67;215.30;;;;;;;11.17;64.96;100334.41;347320;28;1359;-75
2022/10/30 00:08:13;;;;;;;385.30;215.10;;;;;;;11.18;65.35;100333.50;348658;28;1212;-76
2022/10/30 00:08:26;;;;;;;384.42;207.68;;;;;;;11.18;65.08;100341.38;348792;28;1030;-76
2022/10/30 00:08:36;;;;;;;383.98;206.75;;;;;;;11.18;65.28;100335.28;346005;28;1203;-76
2022/10/30 00:08:47;;;;;;;382.30;207.33;;;;;;;11.17;65.40;100336.19;344672;28;1292;-76
2022/10/30 00:08:57;;;;;;;383.63;211.95;;;;;;;11.16;65.44;100337.09;344290;28;1403;-76
2022/10/30 00:09:08;;;;;;;383.23;210.30;;;;;;;11.13;64.83;100340.66;347331;28;1433;-76
2022/10/30 00:09:18;;;;;;;386.40;208.10;;;;;;;11.12;65.08;100336.31;347018;28;1465;-76
2022/10/30 00:09:28;;;;;;;384.90;205.87;;;;;;;11.13;64.85;100338.03;347411;28;989;-76
2022/10/30 00:09:39;;;;;;;386.37;208.83;;;;;;;11.14;64.70;100338.91;346029;28;1279;-76
2022/10/30 00:09:49;;;;;;;384.98;208.52;;;;;;;11.13;64.80;100338.03;346079;28;1237;-75
2022/10/30 00:09:59;;;;;;;388.13;210.77;;;;;;;11.14;64.84;100345.00;346127;28;769;-76
2022/10/30 00:10:10;;;;;;;387.98;210.38;;;;;;;11.15;65.17;100340.63;344687;28;896;-76
2022/10/30 00:10:20;;;;;;;386.70;211.77;;;;;;;11.15;65.63;100338.84;346110;28;856;-77
2022/10/30 00:10:31;;;;;;;386.60;210.18;;;;;;;11.15;64.70;100336.22;346574;28;1204;-76
2022/10/30 00:10:41;;;;;;;386.17;210.83;;;;;;;11.16;64.82;100339.72;340559;28;1427;-76
2022/10/30 00:10:52;;;;;;;389.75;215.48;;;;;;;11.13;64.98;100332.81;341977;28;1613;-75
2022/10/30 00:11:12;;;;;;;389.63;216.63;;;;;;;11.12;64.68;100336.31;346799;28;1308;-75
2022/10/30 00:11:22;;;;;;;387.00;214.90;;;;;;;11.12;64.44;100340.72;342089;28;948;-75
2022/10/30 00:11:33;;;;;;;385.25;215.98;;;;;;;11.12;64.51;100335.47;337567;29;1304;-75
2022/10/30 00:11:43;;;;;;;386.90;216.37;;;;;;;11.12;64.74;100332.84;338299;29;1235;-75
2022/10/30 00:11:53;;;;;;;385.58;211.85;;;;;;;11.11;64.52;100336.38;340404;28;1582;-75
2022/10/30 00:12:04;;;;;;;384.03;209.00;;;;;;;11.12;64.56;100335.47;343554;28;1556;-75
2022/10/30 00:12:14;;;;;;;384.10;210.30;;;;;;;11.13;64.52;100342.41;343370;28;958;-75
2022/10/30 00:12:25;;;;;;;383.87;212.67;;;;;;;11.13;65.22;100335.41;339421;29;1199;-75
2022/10/30 00:12:35;;;;;;;383.25;209.32;;;;;;;11.14;65.35;100339.75;345739;28;1751;-75
2022/10/30 00:12:46;;;;;;;383.90;209.20;;;;;;;11.15;64.75;100335.38;345150;28;1446;-75
2022/10/30 00:12:56;;;;;;;384.15;209.45;;;;;;;11.14;64.96;100339.75;339576;28;1422;-75
2022/10/30 00:13:07;;;;;;;385.77;214.57;;;;;;;11.13;65.20;100332.81;341834;28;1297;-75
2022/10/30 00:13:18;;;;;;;386.23;215.93;;;;;;;11.13;65.50;100342.41;344543;28;1290;-75
2022/10/30 00:13:28;;;;;;;386.50;212.93;;;;;;;11.13;65.33;100339.81;339824;28;1629;-75
2022/10/30 00:13:38;;;;;;;387.97;213.10;;;;;;;11.12;65.33;100335.47;339305;29;1060;-75
2022/10/30 00:13:49;;;;;;;386.80;211.88;;;;;;;11.13;64.98;100343.28;339462;29;1486;-75
2022/10/30 00:13:59;;;;;;;386.30;213.27;;;;;;;11.13;64.81;100332.81;334853;29;3732;-77
2022/10/30 00:14:10;;;;;;;382.25;211.77;;;;;;;11.11;64.91;100342.47;338390;29;3142;-76
2022/10/30 00:14:20;;;;;;;390.13;212.67;;;;;;;11.13;64.60;100342.41;339283;29;1418;-76
2022/10/30 00:14:31;;;;;;;390.63;209.93;;;;;;;11.13;64.45;100340.66;335856;29;2820;-76
2022/10/30 00:14:41;;;;;;;392.30;207.37;;;;;;;11.10;64.45;100340.75;335153;29;2893;-76
2022/10/30 00:14:51;;;;;;;385.80;203.65;;;;;;;11.05;65.02;100340.03;336375;29;1692;-76
2022/10/30 00:15:02;;;;;;;383.57;202.30;;;;;;;11.00;64.67;100342.78;333369;29;1889;-76
2022/10/30 00:15:13;;;;;;;383.58;206.43;;;;;;;11.00;64.76;100337.56;333052;29;1853;-76
2022/10/30 00:15:23;;;;;;;383.88;215.70;;;;;;;11.00;65.08;100341.94;326846;30;927;-76
2022/10/30 00:15:33;;;;;;;385.80;219.53;;;;;;;10.99;64.93;100346.31;330369;29;2140;-76
2022/10/30 00:15:48;;;;;;;386.77;218.93;;;;;;;10.98;65.21;100339.38;327887;29;2264;-76
2022/10/30 00:15:58;;;;;;;387.83;214.20;;;;;;;11.00;65.09;100341.94;327443;30;1727;-76
2022/10/30 00:16:09;;;;;;;387.98;215.70;;;;;;;10.99;64.89;100335.84;327139;30;1505;-76
2022/10/30 00:16:19;;;;;;;387.97;215.67;;;;;;;11.01;64.96;100338.41;330625;29;1797;-76
2022/10/30 00:16:30;;;;;;;386.75;210.95;;;;;;;11.03;64.81;100339.22;332061;29;1098;-76
2022/10/30 00:16:40;;;;;;;387.03;212.50;;;;;;;11.03;64.56;100343.59;330496;29;1107;-76
2022/10/30 00:16:50;;;;;;;386.27;214.77;;;;;;;11.04;64.59;100337.47;327562;29;1799;-76
2022/10/30 00:17:01;;;;;;;386.73;220.02;;;;;;;11.05;64.71;100339.19;326962;29;2087;-76
2022/10/30 00:17:11;;;;;;;384.13;216.77;;;;;;;11.05;64.86;100341.81;326374;29;2346;-76
2022/10/30 00:17:22;;;;;;;383.60;216.73;;;;;;;11.04;65.14;100343.56;326151;30;1201;-76
2022/10/30 00:17:32;;;;;;;386.00;214.13;;;;;;;11.04;64.91;100345.31;328320;29;2422;-76
2022/10/30 00:17:42;;;;;;;389.42;218.80;;;;;;;10.98;65.50;100334.13;326618;30;2601;-76
2022/10/30 00:17:53;;;;;;;388.43;217.10;;;;;;;10.96;64.91;100335.94;326897;30;1361;-76
2022/10/30 00:18:03;;;;;;;386.20;212.05;;;;;;;10.95;65.00;100336.84;323707;30;2796;-76
2022/10/30 00:18:14;;;;;;;391.17;210.30;;;;;;;10.94;64.32;100337.75;323872;30;1935;-78
2022/10/30 00:18:24;;;;;;;392.25;213.73;;;;;;;10.93;64.76;100341.25;322255;30;845;-76
2022/10/30 00:18:36;;;;;;;391.20;216.00;;;;;;;10.96;64.43;100333.31;325462;30;1258;-76
2022/10/30 00:18:46;;;;;;;386.23;216.05;;;;;;;10.95;64.53;100336.84;325471;30;1971;-76
2022/10/30 00:18:56;;;;;;;387.63;216.87;;;;;;;10.95;64.43;100339.47;322109;30;2446;-76
2022/10/30 00:19:07;;;;;;;384.75;213.23;;;;;;;10.97;64.49;100332.41;323602;30;983;-76
2022/10/30 00:19:17;;;;;;;381.87;208.57;;;;;;;10.98;64.83;100339.38;323864;30;3023;-76
2022/10/30 00:19:28;;;;;;;381.60;207.43;;;;;;;10.99;65.02;100345.47;322884;30;2814;-76
2022/10/30 00:19:38;;;;;;;384.52;208.23;;;;;;;10.99;64.75;100330.59;323508;30;1252;-76
2022/10/30 00:19:48;;;;;;;387.37;212.00;;;;;;;10.96;64.75;100345.56;321636;30;3101;-76
2022/10/30 00:19:59;;;;;;;386.15;215.48;;;;;;;10.95;64.86;100335.97;319110;31;3366;-76
2022/10/30 00:20:09;;;;;;;388.83;219.10;;;;;;;10.91;65.15;100331.75;318766;31;1207;-76
2022/10/30 00:20:20;;;;;;;388.65;214.98;;;;;;;10.88;65.18;100334.44;316078;31;3362;-76
2022/10/30 00:20:30;;;;;;;388.23;213.97;;;;;;;10.89;65.00;100337.03;314769;31;2481;-76
2022/10/30 00:20:41;;;;;;;384.85;209.70;;;;;;;10.87;65.44;100338.84;314243;31;1234;-75
2022/10/30 00:20:51;;;;;;;383.50;208.13;;;;;;;10.88;65.72;100337.94;309881;32;1013;-76
2022/10/30 00:21:08;;;;;;;387.27;210.52;;;;;;;10.90;65.56;100336.13;307664;32;2857;-76
2022/10/30 00:21:19;;;;;;;390.88;217.88;;;;;;;10.91;65.46;100335.22;304168;32;3539;-76
2022/10/30 00:21:30;;;;;;;389.40;219.93;;;;;;;10.90;65.16;100336.13;303643;32;4086;-76
2022/10/30 00:21:40;;;;;;;387.90;221.32;;;;;;;10.93;64.96;100341.25;303588;32;908;-76
2022/10/30 00:21:50;;;;;;;391.37;226.50;;;;;;;10.92;65.57;100333.47;309011;32;4379;-76
2022/10/30 00:22:03;;;;;;;390.40;222.60;;;;;;;10.92;65.44;100336.06;305332;32;4338;-76
2022/10/30 00:22:14;;;;;;;387.58;214.35;;;;;;;10.91;64.86;100329.97;303932;32;4366;-76
2022/10/30 00:22:24;;;;;;;385.80;210.90;;;;;;;10.94;64.73;100335.13;303762;32;2301;-76
2022/10/30 00:22:35;;;;;;;387.13;213.60;;;;;;;10.94;64.70;100329.88;299137;32;4666;-76
2022/10/30 00:22:45;;;;;;;388.70;216.90;;;;;;;10.96;64.63;100335.09;298745;32;3418;-76
2022/10/30 00:22:56;;;;;;;388.50;220.87;;;;;;;10.95;65.03;100334.22;298363;33;1279;-76
2022/10/30 00:23:06;;;;;;;386.67;218.03;;;;;;;10.95;65.48;100328.97;299587;32;3707;-77
2022/10/30 00:23:19;;;;;;;385.30;216.85;;;;;;;10.95;64.95;100331.59;297243;32;4273;-76
2022/10/30 00:23:29;;;;;;;387.23;213.57;;;;;;;10.93;64.86;100332.56;295694;33;4756;-76
2022/10/30 00:23:47;;;;;;;390.35;220.43;;;;;;;10.92;65.42;100336.06;292636;33;2238;-76
2022/10/30 00:23:57;;;;;;;390.80;218.60;;;;;;;10.88;65.43;100332.69;292225;33;6020;-76
2022/10/30 00:24:07;;;;;;;386.92;211.27;;;;;;;10.85;65.23;100332.78;286798;34;1681;-76
2022/10/30 00:24:18;;;;;;;389.30;219.23;;;;;;;10.86;65.25;100326.66;292263;33;6139;-76
2022/10/30 00:24:28;;;;;;;391.02;221.75;;;;;;;10.88;64.67;100332.69;293436;33;6345;-76
2022/10/30 00:24:39;;;;;;;392.73;224.63;;;;;;;10.87;64.57;100325.75;292047;33;1235;-76
2022/10/30 00:24:49;;;;;;;391.30;224.82;;;;;;;10.86;64.61;100333.63;289935;33;6643;-77
2022/10/30 00:24:59;;;;;;;389.87;224.63;;;;;;;10.85;65.12;100330.16;288249;33;5050;-77
2022/10/30 00:25:10;;;;;;;392.00;225.63;;;;;;;10.87;64.73;100323.13;287227;34;1208;-77
2022/10/30 00:25:20;;;;;;;391.67;219.02;;;;;;;10.86;64.44;100329.25;290571;33;4311;-77
2022/10/30 00:25:30;;;;;;;389.70;218.73;;;;;;;10.86;64.69;100329.25;289023;34;7299;-77
2022/10/30 00:25:41;;;;;;;387.90;215.20;;;;;;;10.86;64.43;100326.66;289747;34;6514;-77
2022/10/30 00:25:51;;;;;;;387.93;221.57;;;;;;;10.86;64.73;100323.16;285236;34;1291;-77
2022/10/30 00:26:03;;;;;;;388.50;218.88;;;;;;;10.88;64.89;100324.84;287745;33;8529;-74
2022/10/30 00:26:14;;;;;;;387.73;216.75;;;;;;;10.88;64.53;100326.59;286888;34;8468;-77
2022/10/30 00:26:24;;;;;;;388.90;211.00;;;;;;;10.89;64.56;100323.06;283554;34;897;-77
2022/10/30 00:26:35;;;;;;;389.60;207.77;;;;;;;10.87;64.31;100323.13;282817;34;8828;-77
2022/10/30 00:26:45;;;;;;;391.63;210.83;;;;;;;10.89;64.28;100323.06;280489;34;8406;-77
2022/10/30 00:28:18;;;;;;;367.87;172.74;;;;;;;10.87;64.96;100315.25;2490866;27;20274;-76
2022/10/30 00:28:28;;;;;;;373.70;170.47;;;;;;;10.88;64.69;100326.59;351927;28;970;-77
2022/10/30 00:28:39;;;;;;;371.77;165.40;;;;;;;10.88;64.87;100322.22;349182;28;742;-77
2022/10/30 00:28:53;;;;;;;371.73;166.93;;;;;;;10.88;64.46;100311.75;347440;28;1568;-77
2022/10/30 00:29:03;;;;;;;372.70;169.35;;;;;;;10.89;64.59;100316.06;348850;28;1473;-77
2022/10/30 00:29:13;;;;;;;371.67;166.68;;;;;;;10.90;64.98;100319.56;346995;28;1781;-76
2022/10/30 00:29:25;;;;;;;373.13;162.47;;;;;;;10.90;64.74;100316.94;348596;28;1435;-76
2022/10/30 00:29:35;;;;;;;371.55;155.77;;;;;;;10.90;64.54;100320.41;346214;28;1179;-76
2022/10/30 00:29:46;;;;;;;373.47;157.60;;;;;;;10.87;64.90;100315.25;346057;28;1131;-77
2022/10/30 00:29:56;;;;;;;371.83;161.77;;;;;;;10.87;65.04;100315.25;346458;28;1374;-77
2022/10/30 00:30:07;;;;;;;372.73;165.97;;;;;;;10.86;64.92;100313.56;348787;28;1215;-76
2022/10/30 00:30:17;;;;;;;371.63;163.23;;;;;;;10.86;64.96;100318.78;347318;28;1329;-76
2022/10/30 00:30:28;;;;;;;373.33;163.50;;;;;;;10.85;65.30;100317.06;344774;28;812;-76
2022/10/30 00:30:38;;;;;;;374.43;164.60;;;;;;;10.86;64.96;100312.69;344866;28;843;-76
2022/10/30 00:30:49;;;;;;;376.13;167.13;;;;;;;10.86;65.07;100316.16;346412;28;801;-76
2022/10/30 00:31:00;;;;;;;379.40;170.60;;;;;;;10.86;64.81;100308.31;344426;28;1223;-76
2022/10/30 00:31:10;;;;;;;385.25;173.32;;;;;;;10.87;65.06;100312.66;341609;28;1594;-76
2022/10/30 00:31:21;;;;;;;384.52;175.93;;;;;;;10.85;64.99;100311.84;344152;28;802;-76
2022/10/30 00:31:31;;;;;;;381.10;178.47;;;;;;;10.87;66.05;100315.25;345835;28;1207;-76
2022/10/30 00:31:42;;;;;;;379.92;179.18;;;;;;;10.87;65.55;100317.88;347502;28;864;-76
2022/10/30 00:31:52;;;;;;;381.50;180.70;;;;;;;10.86;66.06;100317.94;344601;28;1006;-76
2022/10/30 00:32:02;;;;;;;381.15;180.98;;;;;;;10.86;65.96;100317.94;339495;29;877;-76
2022/10/30 00:32:13;;;;;;;379.20;183.50;;;;;;;10.87;65.88;100314.41;344131;28;1546;-75
2022/10/30 00:32:23;;;;;;;378.73;181.70;;;;;;;10.85;66.22;100309.22;342046;28;5185;-75
2022/10/30 00:32:34;;;;;;;380.80;184.20;;;;;;;10.87;66.29;100315.25;342680;28;3044;-76
2022/10/30 00:32:44;;;;;;;383.00;182.70;;;;;;;10.88;65.93;100318.75;341691;28;1298;-76
2022/10/30 00:32:54;;;;;;;382.33;183.27;;;;;;;10.89;65.88;100318.69;343463;28;1965;-76
2022/10/30 00:33:05;;;;;;;379.07;178.00;;;;;;;10.87;65.64;100314.41;343194;28;3215;-76
2022/10/30 00:33:15;;;;;;;376.07;175.40;;;;;;;10.89;65.58;100320.47;342058;28;843;-76
2022/10/30 00:33:26;;;;;;;378.10;178.53;;;;;;;10.90;65.56;100317.78;345127;28;865;-76
2022/10/30 00:33:36;;;;;;;379.13;179.23;;;;;;;10.90;65.29;100317.78;346207;28;802;-76
2022/10/30 00:33:53;;;;;;;380.60;180.50;;;;;;;10.90;66.20;100319.56;343273;28;1189;-76
2022/10/30 00:34:04;;;;;;;380.25;178.93;;;;;;;10.88;66.72;100314.38;345774;28;1585;-76
2022/10/30 00:34:14;;;;;;;380.17;178.30;;;;;;;10.87;66.01;100319.66;349614;28;1111;-76
2022/10/30 00:34:25;;;;;;;377.83;179.95;;;;;;;10.86;65.70;100312.69;348519;28;1401;-76
2022/10/30 00:34:35;;;;;;;379.60;180.47;;;;;;;10.85;65.68;100316.22;347487;28;1304;-76
2022/10/30 00:34:45;;;;;;;378.58;177.18;;;;;;;10.87;65.55;100310.03;347109;28;1357;-76
2022/10/30 00:34:56;;;;;;;377.07;173.37;;;;;;;10.88;65.18;100314.38;343200;28;1216;-76
2022/10/30 00:35:06;;;;;;;375.20;171.40;;;;;;;10.87;65.32;100315.25;345995;28;829;-76
2022/10/30 00:35:17;;;;;;;374.37;173.13;;;;;;;10.89;65.42;100313.47;345941;28;1062;-76
2022/10/30 00:35:27;;;;;;;373.73;173.10;;;;;;;10.87;65.56;100312.66;344694;28;1451;-76
2022/10/30 00:35:38;;;;;;;375.13;176.00;;;;;;;10.89;65.63;100312.59;341968;28;858;-76
2022/10/30 00:35:48;;;;;;;378.33;179.90;;;;;;;10.88;67.09;100311.75;344531;28;1213;-76
2022/10/30 00:35:59;;;;;;;379.03;181.27;;;;;;;10.87;66.79;100309.16;342058;28;1310;-75
2022/10/30 00:36:09;;;;;;;377.92;179.02;;;;;;;10.87;66.52;100310.03;339537;29;1655;-76
2022/10/30 00:36:20;;;;;;;374.43;174.40;;;;;;;10.87;66.27;100310.03;340601;29;1449;-76
2022/10/30 00:36:30;;;;;;;377.02;175.13;;;;;;;10.87;65.91;100309.16;346808;28;1352;-76
2022/10/30 00:36:41;;;;;;;378.48;178.88;;;;;;;10.83;65.83;100310.19;341786;28;1343;-76
2022/10/30 00:36:51;;;;;;;380.90;181.80;;;;;;;10.81;65.90;100312.88;339501;29;791;-76
2022/10/30 00:37:01;;;;;;;381.87;180.97;;;;;;;10.80;65.48;100311.16;338615;28;1607;-76
2022/10/30 00:37:12;;;;;;;379.25;176.90;;;;;;;10.79;65.74;100306.81;338447;29;1916;-76
2022/10/30 00:37:22;;;;;;;379.37;176.23;;;;;;;10.80;67.06;100308.53;340101;29;1148;-76
2022/10/30 00:37:33;;;;;;;379.98;175.52;;;;;;;10.81;67.07;100304.16;338152;29;815;-76
2022/10/30 00:37:43;;;;;;;381.10;180.00;;;;;;;10.82;67.87;100311.97;336712;29;1537;-76
2022/10/30 00:37:54;;;;;;;382.83;183.83;;;;;;;10.82;67.16;100306.72;336369;29;1422;-76
2022/10/30 00:38:04;;;;;;;383.33;184.03;;;;;;;10.80;66.80;100308.53;333000;29;1419;-76
2022/10/30 00:38:15;;;;;;;387.73;183.90;;;;;;;10.80;66.37;100308.53;336249;29;1766;-76
2022/10/30 00:38:25;;;;;;;385.83;185.57;;;;;;;10.79;66.97;100306.81;337150;29;1752;-76
2022/10/30 00:38:35;;;;;;;385.40;186.38;;;;;;;10.81;66.70;100304.16;334469;29;890;-76
2022/10/30 00:38:46;;;;;;;381.33;181.43;;;;;;;10.81;66.40;100301.53;337548;29;1953;-76
2022/10/30 00:38:56;;;;;;;380.27;176.88;;;;;;;10.81;66.19;100307.63;333240;29;2133;-76
2022/10/30 00:39:06;;;;;;;378.73;175.83;;;;;;;10.80;65.92;100303.28;333025;29;858;-76
2022/10/30 00:39:17;;;;;;;379.60;174.50;;;;;;;10.80;65.38;100303.28;330537;29;858;-76
2022/10/30 00:39:27;;;;;;;381.47;175.33;;;;;;;10.81;65.28;100302.38;329694;29;1730;-76
2022/10/30 00:39:38;;;;;;;379.67;176.32;;;;;;;10.82;65.62;100306.72;327995;30;941;-76
2022/10/30 00:39:48;;;;;;;377.10;175.03;;;;;;;10.82;65.95;100301.50;330481;29;1210;-76
2022/10/30 00:39:58;;;;;;;377.47;177.53;;;;;;;10.80;66.18;100303.28;329401;29;1468;-76
2022/10/30 00:40:13;;;;;;;378.58;175.55;;;;;;;10.80;65.97;100298.06;327267;29;1812;-76
2022/10/30 00:40:23;;;;;;;379.25;176.32;;;;;;;10.80;65.78;100308.53;324168;30;2150;-76
2022/10/30 00:40:34;;;;;;;380.00;176.30;;;;;;;10.80;65.64;100307.69;322053;30;1163;-76
2022/10/30 00:40:44;;;;;;;379.87;182.23;;;;;;;10.79;65.89;100304.19;322984;30;2480;-76
2022/10/30 00:40:55;;;;;;;377.88;181.18;;;;;;;10.78;67.35;100305.09;322602;30;2479;-76
2022/10/30 00:41:05;;;;;;;378.37;181.30;;;;;;;10.78;67.05;100299.00;320775;30;814;-76
2022/10/30 00:41:17;;;;;;;378.70;178.45;;;;;;;10.78;66.26;100296.38;322345;30;2750;-76
2022/10/30 00:41:27;;;;;;;380.02;183.98;;;;;;;10.76;66.08;100308.66;321664;30;2274;-76
2022/10/30 00:41:40;;;;;;;381.50;189.67;;;;;;;10.76;65.73;100299.06;318802;30;3590;-76
2022/10/30 00:41:50;;;;;;;382.70;187.57;;;;;;;10.76;65.84;100299.06;319255;30;3131;-76
2022/10/30 00:42:00;;;;;;;383.13;183.70;;;;;;;10.75;65.59;100305.19;317887;31;1875;-76
2022/10/30 00:42:11;;;;;;;380.33;181.40;;;;;;;10.75;65.89;100297.34;320840;30;3142;-75
2022/10/30 00:42:22;;;;;;;379.40;183.40;;;;;;;10.76;65.80;100300.81;321776;30;2219;-75
2022/10/30 00:42:32;;;;;;;378.70;187.35;;;;;;;10.75;65.63;100302.56;314742;31;1372;-75
2022/10/30 00:42:43;;;;;;;382.70;190.27;;;;;;;10.72;65.98;100297.44;312206;31;2904;-75
2022/10/30 00:42:53;;;;;;;381.63;186.23;;;;;;;10.72;66.12;100300.06;312924;30;3141;-75
2022/10/30 00:43:03;;;;;;;380.07;182.53;;;;;;;10.70;65.90;100301.84;316182;31;1357;-75
2022/10/30 00:43:31;;;;;;;379.02;181.90;;;;;;;10.68;66.10;100303.66;313606;31;3455;-75
2022/10/30 00:43:41;;;;;;;379.25;182.60;;;;;;;10.67;65.66;100304.56;314428;31;2947;-75
2022/10/30 00:43:52;;;;;;;380.75;183.75;;;;;;;10.68;66.01;100303.66;312677;31;1419;-77
2022/10/30 00:44:02;;;;;;;378.60;182.93;;;;;;;10.70;65.79;100299.25;309518;31;1320;-77
2022/10/30 00:44:32;;;;;;;379.88;182.35;;;;;;;10.75;65.95;100307.81;308875;31;2311;-76
2022/10/30 00:44:49;;;;;;;376.17;181.82;;;;;;;10.72;66.12;100304.44;308272;31;3272;-76
2022/10/30 00:45:00;;;;;;;377.27;182.90;;;;;;;10.69;66.54;100310.63;304680;32;3859;-76
2022/10/30 00:45:15;;;;;;;380.33;189.95;;;;;;;10.70;66.51;100306.22;304728;32;4371;-76
2022/10/30 00:45:25;;;;;;;380.45;191.30;;;;;;;10.69;66.01;100305.38;302138;32;4778;-76
2022/10/30 00:45:36;;;;;;;380.45;189.82;;;;;;;10.66;66.15;100305.47;298999;33;1244;-76
2022/10/30 00:45:46;;;;;;;377.83;184.23;;;;;;;10.63;66.38;100295.09;299951;32;4906;-76
2022/10/30 00:45:59;;;;;;;377.43;183.67;;;;;;;10.63;66.30;100300.31;300865;32;3867;-76
2022/10/30 00:46:29;;;;;;;376.32;177.96;;;;;;;10.60;66.24;100305.66;298342;32;2872;-76
2022/10/30 00:46:39;;;;;;;379.17;183.95;;;;;;;10.61;66.29;100302.13;294503;32;4314;-76
2022/10/30 00:46:50;;;;;;;382.48;187.73;;;;;;;10.61;66.25;100296.91;295176;33;887;-76
2022/10/30 00:47:03;;;;;;;386.47;192.10;;;;;;;10.62;66.39;100299.47;291902;33;4812;-76
2022/10/30 00:47:19;;;;;;;383.50;186.55;;;;;;;10.59;66.50;100303.94;288810;34;5676;-76
2022/10/30 00:47:31;;;;;;;375.50;176.07;;;;;;;10.60;66.44;100303.88;286710;34;5869;-76
2022/10/30 00:47:59;;;;;;;374.60;176.88;;;;;;;10.60;66.31;100305.66;281806;34;6508;-76
2022/10/30 00:48:09;;;;;;;378.70;180.80;;;;;;;10.59;66.35;100298.69;280921;34;5339;-76
2022/10/30 00:48:20;;;;;;;380.03;180.37;;;;;;;10.59;66.46;100298.69;280677;35;1920;-76
2022/10/30 00:48:30;;;;;;;383.63;181.68;;;;;;;10.59;66.25;100302.16;279072;35;4112;-76
2022/10/30 00:48:42;;;;;;;382.87;178.50;;;;;;;10.61;66.56;100302.13;275875;35;4245;-76
2022/10/30 00:49:07;;;;;;;382.48;181.25;;;;;;;10.61;66.14;100296.91;276653;34;5991;-76
2022/10/30 00:49:17;;;;;;;377.60;178.88;;;;;;;10.60;66.01;100296.03;279961;35;1370;-76
2022/10/30 00:49:27;;;;;;;376.97;177.90;;;;;;;10.61;65.95;100302.13;276614;35;8656;-76
2022/10/30 00:49:41;;;;;;;378.02;179.75;;;;;;;10.62;66.16;100303.84;274103;35;8028;-76
2022/10/30 00:49:58;;;;;;;380.73;182.27;;;;;;;10.58;66.10;100303.06;274020;36;1193;-76
2022/10/30 00:51:48;;;;;;;365.84;161.36;;;;;;;10.55;66.07;100297.94;2494453;27;20662;-75
2022/10/30 00:51:58;;;;;;;379.42;169.43;;;;;;;10.51;66.88;100293.69;351577;28;1504;-75
2022/10/30 00:52:09;;;;;;;380.98;175.55;;;;;;;10.46;66.41;100299.94;346858;28;1495;-75
2022/10/30 00:52:20;;;;;;;380.93;180.23;;;;;;;10.45;66.97;100295.63;348684;28;1662;-75
2022/10/30 00:52:32;;;;;;;378.15;177.57;;;;;;;10.46;66.87;100297.34;348806;28;1226;-76
2022/10/30 00:52:55;;;;;;;374.58;174.50;;;;;;;10.45;66.76;100295.63;348753;28;1600;-76
2022/10/30 00:53:13;;;;;;;375.15;170.23;;;;;;;10.45;66.35;100298.25;345871;28;1236;-76
2022/10/30 00:53:25;;;;;;;375.13;167.15;;;;;;;10.44;66.17;100296.53;346603;28;1422;-76
2022/10/30 00:53:36;;;;;;;376.08;169.13;;;;;;;10.47;66.48;100294.69;348442;28;1509;-75
2022/10/30 00:53:46;;;;;;;374.75;168.85;;;;;;;10.50;66.03;100293.72;348802;28;1544;-75
2022/10/30 00:53:58;;;;;;;376.80;173.57;;;;;;;10.51;66.00;100300.69;348674;28;1336;-76
2022/10/30 00:54:09;;;;;;;378.75;178.95;;;;;;;10.53;67.18;100298.88;347611;28;1150;-75
2022/10/30 00:54:19;;;;;;;377.45;179.95;;;;;;;10.52;66.41;100291.94;348837;28;895;-77
2022/10/30 00:54:30;;;;;;;373.85;174.40;;;;;;;10.54;66.25;100300.59;346044;28;1287;-76
2022/10/30 00:54:40;;;;;;;373.93;173.97;;;;;;;10.54;66.03;100301.44;346333;28;817;-75
2022/10/30 00:54:51;;;;;;;374.73;174.07;;;;;;;10.55;66.19;100300.53;347436;28;1231;-75
2022/10/30 00:55:07;;;;;;;377.75;174.55;;;;;;;10.55;66.05;100297.06;348882;28;789;-75
2022/10/30 00:55:23;;;;;;;378.10;174.43;;;;;;;10.57;66.00;100305.72;347427;28;940;-75
2022/10/30 00:55:38;;;;;;;376.25;175.65;;;;;;;10.57;66.09;100300.50;347304;28;1267;-75